KPGV/PGV METAR and TAF weather

Enter ICAO airport designator
Station Type Date Time Source
KPGV METAR 2019/08/24 17:55 UTC NOAA

KPGV 241755Z AUTO 04006KT 10SM OVC016 23/20 A3012 RMK AO2


Station Type Date Time Source
KPGV Decoded METAR 2019/08/24 17:55 UTC NOAA

Station name not available
Aug 24, 2019 - 01:55 PM EDT / 2019.08.24 1755 UTC
Wind: from the NE (040 degrees) at 7 MPH (6 KT):0
Visibility: 10 mile(s):0
Sky conditions: overcast
Temperature: 73 F (23 C)
Dew Point: 68 F (20 C)
Relative Humidity: 83%
Pressure (altimeter): 30.12 in. Hg (1019 hPa)
ob: KPGV 241755Z AUTO 04006KT 10SM OVC016 23/20 A3012 RMK AO2
cycle: 18

Station Type Date Time Source
KPGV TAF 2019/08/24 18:45 UTC NOAA

TAF KPGV 241742Z 2418/2518 04007KT P6SM VCSH OVC015
TEMPO 2418/2422 4SM SHRA OVC008
FM250200 03006KT P6SM BKN015
FM251400 03010G15KT P6SM BKN020
AMD LTD TO CLD VIS AND WIND

Example: see airport list